»·PEaware :: ASA525 KKNB-KLGB

ASA525 :: KKNB-KLGB

FLIGHT INFORMATION

Flight Status: Arrived
Operator:
Alaska Airlines
More flights by this operator :: More flights under this callsign
Pilot: Kim B. (19519)
Aircraft: DEHAVILLAND DASH 8 400
(DH8D)
More flights by this aircraft type
Origin: KKNB Kanab Mun
United States
Destination: KLGB Long Beach
United States
More flights between these airports :: More routes between these airports
Route: +MMM V21 HEC KAYOH7
File this flight plan on PilotEdge
Remarks:
Altitude:
(Current/Filed)
20,000ft
Speed:
(Current/Filed)
350kts
Departed: 08-Nov-18 04:57 PM
Arrived: 08-Nov-18 06:09 PM
Distance/Time
Traveled:
335nm/1:12
Distance/Time
To Go:
Arrived

Flight Plot

Page will automatically refresh every two minutes.

Flight plan parsing failed; only flown route is shown


Map Options




Map Legend


Flown Route
Filed Route
Departure Airport
Arrival Airport
Navaid (VOR, NDB)
Fix

Horizontal Profiles

Position Reports

Time Latitude Longitude Heading Altitude Ground
Speed
08-Nov-18 16:38 37.010636 -112.529075 343 4848ft 0kts
08-Nov-18 16:39 37.010636 -112.529075 343 4848ft 0kts
08-Nov-18 16:40 37.010636 -112.529075 343 4848ft 0kts
08-Nov-18 16:41 37.010636 -112.529075 343 4848ft 0kts
08-Nov-18 16:42 37.010636 -112.529075 343 4848ft 0kts
08-Nov-18 16:43 37.010636 -112.529075 343 4848ft 0kts
08-Nov-18 16:44 37.010636 -112.529075 343 4848ft 0kts
08-Nov-18 16:45 37.010636 -112.529075 343 4848ft 0kts
08-Nov-18 16:46 37.010750 -112.529576 259 4848ft 10kts
08-Nov-18 16:47 37.010908 -112.530412 349 4848ft 0kts
08-Nov-18 16:48 37.010908 -112.530412 349 4848ft 0kts
08-Nov-18 16:49 37.010908 -112.530412 349 4848ft 0kts
08-Nov-18 16:50 37.010908 -112.530412 349 4848ft 0kts
08-Nov-18 16:51 37.010908 -112.530412 349 4848ft 0kts
08-Nov-18 16:52 37.010908 -112.530412 349 4848ft 0kts
08-Nov-18 16:53 37.010908 -112.530412 349 4848ft 0kts
08-Nov-18 16:54 37.010908 -112.530412 349 4848ft 0kts
08-Nov-18 16:55 37.010908 -112.530412 349 4848ft 0kts
08-Nov-18 16:56 37.010908 -112.530412 349 4848ft 0kts
08-Nov-18 16:57 37.010908 -112.530412 349 4848ft 0kts
08-Nov-18 16:58 37.014205 -112.529673 21 4848ft 36kts
08-Nov-18 16:59 37.018240 -112.527758 217 4848ft 2kts
08-Nov-18 17:00 37.006882 -112.533232 202 4935ft 155kts
08-Nov-18 17:01 36.961608 -112.569639 267 8257ft 187kts
08-Nov-18 17:02 36.977559 -112.629542 293 11021ft 188kts
08-Nov-18 17:03 36.989603 -112.694096 275 13573ft 199kts
08-Nov-18 17:04 36.983550 -112.779437 265 14713ft 270kts
08-Nov-18 17:05 36.973640 -112.855735 265 16925ft 271kts
08-Nov-18 17:06 36.958543 -112.965948 267 19510ft 281kts
08-Nov-18 17:07 36.946876 -113.050915 266 20062ft 323kts
08-Nov-18 17:08 36.930330 -113.169202 266 20038ft 363kts
08-Nov-18 17:09 36.912461 -113.295771 265 20020ft 374kts
08-Nov-18 17:10 36.894288 -113.423653 265 20004ft 377kts
08-Nov-18 17:11 36.876350 -113.548901 265 19996ft 377kts
08-Nov-18 17:12 36.860482 -113.658949 265 19996ft 377kts
08-Nov-18 17:13 36.841834 -113.787309 265 19997ft 377kts
08-Nov-18 17:14 36.823125 -113.915045 265 19996ft 375kts
08-Nov-18 17:15 36.804313 -114.042537 265 19997ft 374kts
08-Nov-18 17:16 36.785305 -114.170363 265 19997ft 374kts
08-Nov-18 17:17 36.745726 -114.288121 224 19986ft 396kts
08-Nov-18 17:18 36.654022 -114.365497 215 19984ft 401kts
08-Nov-18 17:19 36.559245 -114.437989 215 19983ft 401kts
08-Nov-18 17:20 36.464095 -114.510377 215 19983ft 402kts
08-Nov-18 17:21 36.368604 -114.582811 215 19983ft 402kts
08-Nov-18 17:22 36.273948 -114.654407 214 19984ft 402kts
08-Nov-18 17:23 36.178567 -114.726337 214 19986ft 402kts
08-Nov-18 17:24 36.083999 -114.797452 214 19986ft 403kts
08-Nov-18 17:25 35.992830 -114.871639 228 20003ft 396kts
08-Nov-18 17:26 35.919041 -114.968406 232 19978ft 395kts
08-Nov-18 17:27 35.845546 -115.068261 232 19986ft 393kts
08-Nov-18 17:28 35.772541 -115.167259 232 19994ft 389kts
08-Nov-18 17:29 35.699848 -115.265535 232 19997ft 387kts
08-Nov-18 17:30 35.627735 -115.362719 232 19998ft 386kts
08-Nov-18 17:31 35.555342 -115.459992 232 19999ft 385kts
08-Nov-18 17:32 35.483121 -115.556873 232 19999ft 385kts
08-Nov-18 17:33 35.411324 -115.652839 231 20000ft 386kts
08-Nov-18 17:34 35.338818 -115.749472 231 19996ft 386kts
08-Nov-18 17:35 35.266074 -115.846143 231 19985ft 387kts
08-Nov-18 17:36 35.193211 -115.942695 231 19976ft 387kts
08-Nov-18 17:37 35.120164 -116.039214 231 19976ft 387kts
08-Nov-18 17:38 35.047303 -116.135219 231 19977ft 387kts
08-Nov-18 17:39 34.974283 -116.231128 232 19975ft 386kts
08-Nov-18 17:40 34.901415 -116.326602 232 19962ft 382kts
08-Nov-18 17:41 34.830677 -116.419006 232 19936ft 365kts
08-Nov-18 17:42 34.761488 -116.506688 231 19939ft 356kts
08-Nov-18 17:43 34.692428 -116.591719 231 19941ft 352kts
08-Nov-18 17:44 34.623848 -116.675986 230 19523ft 356kts
08-Nov-18 17:45 34.554310 -116.761123 230 17989ft 358kts
08-Nov-18 17:46 34.484800 -116.846021 229 16309ft 355kts
08-Nov-18 17:47 34.415691 -116.930232 228 14622ft 348kts
08-Nov-18 17:48 34.348882 -117.011425 227 13171ft 331kts
08-Nov-18 17:49 34.287424 -117.085899 227 13086ft 301kts
08-Nov-18 17:50 34.210575 -117.119902 190 12490ft 309kts
08-Nov-18 17:51 34.125423 -117.133722 188 11375ft 308kts
08-Nov-18 17:52 34.043930 -117.145822 188 11035ft 286kts
08-Nov-18 17:53 33.964454 -117.157602 188 11037ft 290kts
08-Nov-18 17:54 33.884777 -117.169365 188 11036ft 298kts
08-Nov-18 17:55 33.804060 -117.188787 222 11025ft 297kts
08-Nov-18 17:56 33.779964 -117.276111 267 10507ft 273kts
08-Nov-18 17:57 33.778509 -117.364238 272 9378ft 256kts
08-Nov-18 17:58 33.779064 -117.447916 273 8262ft 246kts
08-Nov-18 17:59 33.779675 -117.521911 274 8013ft 204kts
08-Nov-18 18:00 33.780284 -117.589082 275 8012ft 202kts
08-Nov-18 18:01 33.780639 -117.657011 265 7992ft 205kts
08-Nov-18 18:02 33.759653 -117.723686 251 7100ft 212kts
08-Nov-18 18:03 33.740028 -117.786482 251 5850ft 198kts
08-Nov-18 18:04 33.722535 -117.847114 251 4370ft 194kts
08-Nov-18 18:05 33.707293 -117.902460 251 3950ft 146kts
08-Nov-18 18:06 33.694821 -117.948861 251 3040ft 165kts
08-Nov-18 18:07 33.688840 -118.004440 300 1991ft 171kts
08-Nov-18 18:08 33.723261 -118.037728 315 2013ft 173kts
08-Nov-18 18:09 33.759681 -118.081117 313 1572ft 180kts
08-Nov-18 18:10 33.789763 -118.117436 312 716ft 132kts
08-Nov-18 18:11 33.812111 -118.144377 312 50ft 103kts
08-Nov-18 18:12 33.818519 -118.150953 80 50ft 0kts
08-Nov-18 18:13 33.818556 -118.147865 91 50ft 18kts
08-Nov-18 18:14 33.819270 -118.146010 136 50ft 2kts
08-Nov-18 18:15 33.819228 -118.145959 134 50ft 0kts
08-Nov-18 18:16 33.819228 -118.145959 134 50ft 0kts
08-Nov-18 18:17 33.819228 -118.145959 134 50ft 0kts

Navigation Log

Ident Type
Flight plan parsing failed, navigation log unavailable